createdAt,value
2023-02-05T00:03:16.856Z,9.77
2023-02-05T00:05:44.307Z,14.77
2023-02-05T00:11:10.536Z,14.20
2023-02-05T00:13:38.718Z,12.20
2023-02-05T00:16:10.261Z,12.43
2023-02-05T00:18:39.086Z,12.63
2023-02-05T00:21:07.335Z,13.30
2023-02-05T00:23:35.693Z,12.80
2023-02-05T00:26:20.182Z,13.53
2023-02-05T00:28:47.793Z,14.13
2023-02-05T00:31:17.584Z,13.43
2023-02-05T00:33:47.050Z,12.43
2023-02-05T00:36:14.915Z,17.50
2023-02-05T00:38:42.791Z,14.70
2023-02-05T00:41:10.893Z,14.37
2023-02-05T00:46:26.570Z,14.07
2023-02-05T00:48:55.374Z,11.97
2023-02-05T00:51:23.005Z,13.10
2023-02-05T00:53:50.540Z,12.70
2023-02-05T00:56:19.238Z,11.87
2023-02-05T00:58:48.879Z,13.33
2023-02-05T01:04:19.822Z,12.60
2023-02-05T01:06:48.394Z,10.70
2023-02-05T01:09:15.835Z,12.07
2023-02-05T01:11:43.277Z,10.90
2023-02-05T01:14:10.937Z,10.83
2023-02-05T01:16:38.390Z,12.03
2023-02-05T01:19:05.834Z,10.17
2023-02-05T01:24:36.068Z,14.60
2023-02-05T01:27:03.567Z,11.90
2023-02-05T01:29:31.438Z,11.27
2023-02-05T01:31:58.954Z,12.87
2023-02-05T01:34:26.441Z,13.03
2023-02-05T01:36:53.922Z,9.87
2023-02-05T01:39:21.368Z,11.43
2023-02-05T01:42:17.420Z,11.60
2023-02-05T01:44:46.258Z,10.77
2023-02-05T01:47:13.721Z,9.47
2023-02-05T01:49:43.801Z,9.77
2023-02-05T01:52:13.646Z,11.90
2023-02-05T01:54:44.364Z,10.17
2023-02-05T01:57:15.806Z,10.50
2023-02-05T01:59:46.186Z,12.27
2023-02-05T02:05:17.739Z,10.63
2023-02-05T02:07:45.353Z,13.30
2023-02-05T02:10:17.104Z,12.17
2023-02-05T02:12:46.163Z,15.17
2023-02-05T02:18:28.266Z,10.80
2023-02-05T02:21:28.593Z,11.13
2023-02-05T02:24:14.825Z,13.20
2023-02-05T02:26:49.555Z,12.60
2023-02-05T02:29:20.975Z,13.33
2023-02-05T02:31:52.537Z,10.43
2023-02-05T02:37:25.382Z,11.33
2023-02-05T02:39:58.935Z,11.60
2023-02-05T02:45:32.396Z,11.03
2023-02-05T02:48:01.145Z,11.40
2023-02-05T02:50:32.936Z,10.17
2023-02-05T02:53:03.327Z,12.67
2023-02-05T02:55:33.845Z,10.90
2023-02-05T02:58:02.397Z,8.17
2023-02-05T03:00:32.672Z,12.50
2023-02-05T03:05:42.248Z,8.37
2023-02-05T03:08:13.950Z,9.23
2023-02-05T03:10:44.390Z,6.73
2023-02-05T03:13:14.683Z,15.97
2023-02-05T03:15:48.834Z,7.47
2023-02-05T03:21:30.483Z,13.30
2023-02-05T03:27:00.482Z,11.17
2023-02-05T03:29:44.551Z,8.80
2023-02-05T03:32:28.197Z,11.13
2023-02-05T03:35:04.648Z,10.00
2023-02-05T03:37:40.581Z,10.17
2023-02-05T03:40:14.608Z,10.03
2023-02-05T03:42:47.433Z,10.83
2023-02-05T03:45:25.047Z,11.70
2023-02-05T03:48:03.914Z,11.53
2023-02-05T03:50:36.188Z,9.40
2023-02-05T03:53:08.671Z,12.10
2023-02-05T03:55:39.783Z,12.37
2023-02-05T03:58:11.646Z,13.17
2023-02-05T04:00:40.823Z,12.30
2023-02-05T04:03:09.942Z,10.03
2023-02-05T04:05:38.028Z,12.83
2023-02-05T04:08:07.131Z,12.17
2023-02-05T04:10:41.889Z,11.73
2023-02-05T04:13:41.874Z,10.40
2023-02-05T04:16:12.057Z,10.87
2023-02-05T04:18:41.358Z,12.87
2023-02-05T04:21:09.267Z,10.43
2023-02-05T04:26:28.452Z,10.43
2023-02-05T04:29:01.850Z,10.17
2023-02-05T04:31:32.031Z,10.23
2023-02-05T04:34:01.765Z,10.40
2023-02-05T04:36:29.437Z,10.33
2023-02-05T04:38:57.746Z,10.70
2023-02-05T04:41:25.264Z,11.03
2023-02-05T04:43:52.669Z,10.60
2023-02-05T04:46:20.131Z,12.10
2023-02-05T04:48:47.570Z,12.00
2023-02-05T04:51:17.178Z,10.30
2023-02-05T04:53:44.733Z,13.90
2023-02-05T04:56:13.982Z,13.10
2023-02-05T04:58:41.574Z,12.77
2023-02-05T05:01:12.832Z,9.37
2023-02-05T05:03:40.359Z,12.27
2023-02-05T05:06:08.239Z,11.40
2023-02-05T05:08:37.114Z,12.60
2023-02-05T05:11:07.359Z,11.07
2023-02-05T05:13:35.323Z,10.93
2023-02-05T05:16:03.131Z,13.17
2023-02-05T05:18:30.685Z,15.43
2023-02-05T05:20:58.170Z,13.20
2023-02-05T05:23:25.620Z,15.47
2023-02-05T05:25:54.339Z,12.53
2023-02-05T05:28:21.785Z,12.53
2023-02-05T05:30:49.421Z,10.97
2023-02-05T05:33:17.127Z,14.87
2023-02-05T05:35:46.429Z,10.77
2023-02-05T05:38:14.074Z,14.10
2023-02-05T05:40:59.418Z,19.13
2023-02-05T05:43:46.022Z,10.80
2023-02-05T05:46:14.624Z,11.97
2023-02-05T05:48:42.164Z,11.90
2023-02-05T05:51:09.648Z,13.83
2023-02-05T05:53:37.089Z,14.07
2023-02-05T05:56:05.098Z,12.43
2023-02-05T05:58:33.842Z,12.73
2023-02-05T06:01:01.267Z,14.20
2023-02-05T06:03:28.705Z,10.33
2023-02-05T06:05:56.130Z,12.03
2023-02-05T06:08:25.910Z,15.97
2023-02-05T06:10:53.317Z,10.87
2023-02-05T06:13:20.834Z,14.33
2023-02-05T06:15:49.846Z,12.50
2023-02-05T06:18:17.348Z,13.33
2023-02-05T06:21:10.669Z,13.50
2023-02-05T06:23:38.171Z,15.57
2023-02-05T06:26:05.919Z,17.43
2023-02-05T06:28:33.318Z,22.70
2023-02-05T06:31:02.283Z,20.17
2023-02-05T06:33:29.907Z,15.60
2023-02-05T06:38:45.442Z,15.50
2023-02-05T06:41:12.912Z,13.43
2023-02-05T06:46:39.863Z,19.27
2023-02-05T06:49:07.339Z,19.97
2023-02-05T06:51:34.799Z,16.30
2023-02-05T06:54:02.339Z,24.87
2023-02-05T06:59:18.457Z,18.30
2023-02-05T07:01:47.226Z,16.40
2023-02-05T07:07:22.426Z,23.43
2023-02-05T07:12:48.456Z,21.27
2023-02-05T07:15:16.142Z,21.47
2023-02-05T07:20:24.887Z,20.40
2023-02-05T07:25:54.855Z,17.50
2023-02-05T07:28:22.259Z,19.47
2023-02-05T07:30:49.991Z,18.80
2023-02-05T07:33:17.702Z,16.07
2023-02-05T07:35:46.489Z,19.27
2023-02-05T07:38:39.111Z,22.47
2023-02-05T07:41:07.299Z,16.30
2023-02-05T07:43:35.390Z,20.73
2023-02-05T07:46:04.769Z,15.70
2023-02-05T07:48:32.833Z,24.57
2023-02-05T07:51:02.005Z,18.90
2023-02-05T07:53:29.853Z,17.37
2023-02-05T07:55:57.322Z,15.40
2023-02-05T07:58:24.732Z,18.97
2023-02-05T08:03:55.179Z,22.87
2023-02-05T08:06:23.942Z,18.93
2023-02-05T08:08:51.398Z,19.87
2023-02-05T08:11:19.612Z,17.07
2023-02-05T08:13:47.383Z,24.17
2023-02-05T08:16:16.476Z,19.07
2023-02-05T08:18:44.383Z,16.83
2023-02-05T08:21:11.799Z,21.60
2023-02-05T08:23:40.530Z,15.37
2023-02-05T08:28:56.848Z,20.47
2023-02-05T08:31:24.289Z,19.20
2023-02-05T08:33:54.672Z,14.53
2023-02-05T08:36:22.557Z,15.87
2023-02-05T08:41:40.145Z,18.23
2023-02-05T08:44:07.809Z,15.90
2023-02-05T08:46:48.788Z,16.30
2023-02-05T08:49:17.032Z,13.17
2023-02-05T08:54:47.979Z,21.63
2023-02-05T08:57:17.200Z,17.40
2023-02-05T08:59:44.734Z,18.07
2023-02-05T09:02:14.921Z,17.97
2023-02-05T09:04:43.156Z,18.23
2023-02-05T09:07:10.629Z,14.90
2023-02-05T09:09:38.298Z,16.80
2023-02-05T09:12:06.043Z,18.33
2023-02-05T09:14:36.907Z,15.10
2023-02-05T09:17:04.610Z,14.53
2023-02-05T09:19:34.613Z,17.60
2023-02-05T09:25:09.278Z,17.70
2023-02-05T09:27:36.783Z,16.47
2023-02-05T09:30:06.130Z,14.17
2023-02-05T09:32:33.549Z,16.00
2023-02-05T09:35:01.069Z,15.43
2023-02-05T09:37:28.585Z,19.70
2023-02-05T09:40:20.116Z,16.07
2023-02-05T09:42:51.657Z,18.27
2023-02-05T09:45:36.722Z,19.87
2023-02-05T09:51:11.198Z,17.80
2023-02-05T09:53:42.216Z,18.13
2023-02-05T09:56:10.265Z,18.07
2023-02-05T09:58:42.942Z,23.47
2023-02-05T10:01:15.805Z,19.77
2023-02-05T10:03:47.185Z,19.17
2023-02-05T10:09:39.533Z,20.30
2023-02-05T10:12:16.712Z,21.87
2023-02-05T10:14:50.057Z,25.03
2023-02-05T10:17:29.474Z,16.73
2023-02-05T10:20:16.459Z,20.70
2023-02-05T10:26:01.583Z,20.50
2023-02-05T10:28:41.780Z,16.37
2023-02-05T10:31:16.946Z,17.87
2023-02-05T10:36:34.307Z,19.03
2023-02-05T10:39:02.005Z,16.83
2023-02-05T10:41:33.099Z,20.73
2023-02-05T10:44:05.891Z,14.80
2023-02-05T10:46:35.359Z,14.07
2023-02-05T10:49:07.852Z,15.93
2023-02-05T10:54:35.175Z,22.33
2023-02-05T10:57:02.705Z,21.23
2023-02-05T10:59:33.781Z,18.87
2023-02-05T11:02:05.354Z,19.80
2023-02-05T11:04:38.308Z,19.97
2023-02-05T11:10:18.766Z,16.83
2023-02-05T11:12:47.416Z,20.30
2023-02-05T11:15:24.039Z,20.00
2023-02-05T11:20:56.896Z,19.50
2023-02-05T11:23:25.706Z,19.53
2023-02-05T11:25:56.724Z,20.87
2023-02-05T11:28:27.967Z,16.77
2023-02-05T11:30:56.321Z,16.90
2023-02-05T11:33:27.819Z,24.43
2023-02-05T11:35:57.122Z,16.10
2023-02-05T11:38:32.511Z,14.77
2023-02-05T11:41:02.512Z,17.37
2023-02-05T11:43:32.437Z,14.57
2023-02-05T11:46:00.674Z,17.57
2023-02-05T11:48:34.295Z,16.00
2023-02-05T11:51:02.598Z,15.50
2023-02-05T11:53:32.825Z,16.90
2023-02-05T11:56:04.896Z,15.50
2023-02-05T11:58:37.224Z,16.43
2023-02-05T12:01:07.842Z,14.63
2023-02-05T12:03:35.799Z,17.53
2023-02-05T12:06:09.017Z,16.40
2023-02-05T12:08:43.325Z,14.37
2023-02-05T12:11:31.006Z,14.67
2023-02-05T12:16:53.379Z,15.90
2023-02-05T12:19:22.153Z,14.53
2023-02-05T12:21:51.826Z,14.60
2023-02-05T12:27:30.884Z,18.10
2023-02-05T12:33:12.887Z,18.73
2023-02-05T12:35:52.950Z,17.63
2023-02-05T12:38:32.121Z,18.07
2023-02-05T12:41:07.369Z,16.93
2023-02-05T12:46:47.807Z,20.87
2023-02-05T12:49:27.237Z,20.87
2023-02-05T12:52:07.714Z,19.07
2023-02-05T12:54:49.637Z,19.67
2023-02-05T13:00:15.055Z,21.77
2023-02-05T13:02:49.064Z,24.00
2023-02-05T13:05:20.949Z,27.90
2023-02-05T13:10:51.501Z,26.07
2023-02-05T13:16:10.691Z,24.50
2023-02-05T13:18:40.814Z,25.47
2023-02-05T13:21:30.871Z,26.53
2023-02-05T13:24:21.750Z,27.60
2023-02-05T13:27:07.003Z,25.93
2023-02-05T13:29:43.691Z,26.00
2023-02-05T13:34:59.960Z,28.13
2023-02-05T13:37:42.634Z,28.23
2023-02-05T13:40:36.797Z,24.87
2023-02-05T13:46:29.708Z,22.97
2023-02-05T13:49:13.787Z,26.57
2023-02-05T13:55:13.647Z,20.60
2023-02-05T13:58:07.011Z,27.03
2023-02-05T14:00:34.830Z,23.67
2023-02-05T14:03:26.260Z,26.47
2023-02-05T14:05:53.912Z,23.73
2023-02-05T14:08:24.002Z,24.03
2023-02-05T14:10:59.149Z,23.20
2023-02-05T14:13:32.410Z,22.83
2023-02-05T14:16:31.871Z,19.03
2023-02-05T14:19:18.526Z,22.33
2023-02-05T14:22:00.330Z,21.53
2023-02-05T14:24:45.863Z,23.90
2023-02-05T14:30:46.830Z,19.30
2023-02-05T14:33:32.261Z,19.07
2023-02-05T14:36:44.541Z,21.07
2023-02-05T14:39:56.513Z,20.40
2023-02-05T14:42:37.825Z,18.40
2023-02-05T14:45:16.134Z,16.93
2023-02-05T14:47:45.625Z,17.30
2023-02-05T14:50:20.688Z,16.93
2023-02-05T14:52:48.959Z,18.00
2023-02-05T14:55:21.389Z,16.30
2023-02-05T15:00:47.950Z,19.40
2023-02-05T15:03:25.817Z,15.73
2023-02-05T15:09:06.198Z,16.27
2023-02-05T15:11:45.569Z,16.33
2023-02-05T15:14:44.283Z,18.77
2023-02-05T15:17:44.008Z,16.80
2023-02-05T15:20:21.376Z,18.40
2023-02-05T15:22:53.220Z,15.17
2023-02-05T15:25:30.429Z,18.17
2023-02-05T15:31:09.241Z,16.87
2023-02-05T15:33:44.554Z,14.90
2023-02-05T15:36:21.495Z,18.50
2023-02-05T15:38:54.065Z,16.37
2023-02-05T15:41:22.657Z,16.07
2023-02-05T15:44:00.823Z,16.95
2023-02-05T15:46:28.900Z,18.10
2023-02-05T15:48:57.071Z,15.70
2023-02-05T15:51:30.048Z,14.27
2023-02-05T15:53:59.289Z,17.47
2023-02-05T15:56:29.412Z,15.50
2023-02-05T15:59:00.410Z,16.20
2023-02-05T16:01:30.381Z,17.80
2023-02-05T16:03:58.039Z,14.70
2023-02-05T16:06:31.384Z,14.33
2023-02-05T16:08:58.788Z,15.10
2023-02-05T16:11:27.971Z,16.30
2023-02-05T16:14:11.398Z,13.83
2023-02-05T16:16:40.835Z,13.23
2023-02-05T16:19:15.127Z,14.90
2023-02-05T16:24:43.102Z,17.93
2023-02-05T16:27:14.411Z,18.57
2023-02-05T16:32:46.125Z,15.97
2023-02-05T16:35:22.973Z,17.53
2023-02-05T16:37:50.539Z,17.27
2023-02-05T16:40:30.673Z,13.53
2023-02-05T16:42:59.982Z,16.63
2023-02-05T16:45:29.007Z,18.23
2023-02-05T16:48:22.435Z,15.70
2023-02-05T16:50:50.294Z,14.73
2023-02-05T16:53:21.495Z,13.27
2023-02-05T16:55:51.370Z,12.70
2023-02-05T16:58:21.810Z,13.07
2023-02-05T17:00:54.518Z,15.70
2023-02-05T17:03:22.107Z,13.83
2023-02-05T17:06:00.898Z,12.50
2023-02-05T17:08:31.717Z,10.77
2023-02-05T17:11:02.382Z,15.57
2023-02-05T17:16:30.462Z,14.17
2023-02-05T17:18:59.557Z,13.57
2023-02-05T17:21:29.397Z,12.83
2023-02-05T17:23:59.255Z,15.43
2023-02-05T17:26:30.995Z,15.17
2023-02-05T17:29:01.103Z,16.47
2023-02-05T17:31:29.453Z,17.27
2023-02-05T17:33:58.524Z,17.80
2023-02-05T17:36:26.431Z,17.00
2023-02-05T17:38:53.867Z,16.17
2023-02-05T17:41:40.404Z,17.47
2023-02-05T17:44:10.481Z,15.87
2023-02-05T17:49:36.758Z,16.47
2023-02-05T17:52:04.269Z,18.53
2023-02-05T17:54:31.956Z,21.13
2023-02-05T17:57:05.946Z,20.10
2023-02-05T17:59:35.398Z,24.50
2023-02-05T18:04:51.871Z,22.83
2023-02-05T18:07:21.684Z,22.50
2023-02-05T18:09:49.136Z,24.53
2023-02-05T18:12:16.600Z,24.73
2023-02-05T18:14:45.378Z,25.93
2023-02-05T18:17:12.860Z,28.23
2023-02-05T18:22:28.923Z,25.50
2023-02-05T18:24:56.347Z,25.93
2023-02-05T18:27:23.899Z,28.10
2023-02-05T18:29:52.818Z,25.37
2023-02-05T18:32:20.775Z,23.37
2023-02-05T18:34:48.210Z,24.20
2023-02-05T18:37:16.553Z,22.60
2023-02-05T18:39:44.043Z,25.13
2023-02-05T18:42:12.676Z,22.77
2023-02-05T18:44:40.284Z,28.43
2023-02-05T18:49:52.721Z,24.27
2023-02-05T18:52:22.742Z,23.23
2023-02-05T18:54:50.421Z,28.93
2023-02-05T19:00:16.687Z,31.30
2023-02-05T19:02:44.102Z,29.40
2023-02-05T19:05:12.901Z,32.47
2023-02-05T19:07:40.438Z,30.13
2023-02-05T19:10:08.291Z,38.77
2023-02-05T19:12:35.724Z,35.03
2023-02-05T19:15:03.166Z,34.87
2023-02-05T19:17:30.564Z,34.80
2023-02-05T19:19:58.477Z,31.97
2023-02-05T19:22:27.394Z,33.20
2023-02-05T19:24:54.806Z,32.93
2023-02-05T19:27:22.255Z,36.57
2023-02-05T19:32:51.805Z,33.50
2023-02-05T19:35:19.310Z,36.93
2023-02-05T19:37:48.095Z,41.90
2023-02-05T19:40:16.029Z,42.93
2023-02-05T19:42:44.539Z,40.87
2023-02-05T19:48:18.311Z,43.30
2023-02-05T19:50:45.706Z,38.83
2023-02-05T19:53:14.444Z,40.43
2023-02-05T19:55:42.076Z,38.13
2023-02-05T19:58:09.502Z,45.50
2023-02-05T20:00:37.176Z,41.13
2023-02-05T20:03:04.802Z,40.43
2023-02-05T20:05:33.307Z,41.60
2023-02-05T20:08:00.941Z,43.37
2023-02-05T20:10:29.702Z,43.87
2023-02-05T20:15:45.831Z,40.00
2023-02-05T20:18:13.267Z,38.30
2023-02-05T20:20:40.886Z,41.03
2023-02-05T20:23:09.068Z,43.60
2023-02-05T20:25:37.809Z,36.33
2023-02-05T20:28:05.952Z,34.53
2023-02-05T20:33:21.822Z,31.57
2023-02-05T20:35:49.279Z,29.17
2023-02-05T20:38:16.713Z,28.60
2023-02-05T20:40:45.477Z,30.70
2023-02-05T20:43:12.938Z,28.03
2023-02-05T20:45:40.359Z,28.53
2023-02-05T20:48:07.831Z,23.10
2023-02-05T20:50:35.495Z,26.90
2023-02-05T20:53:03.101Z,31.80
2023-02-05T20:55:30.522Z,29.30
2023-02-05T20:57:59.281Z,31.17
2023-02-05T21:00:27.282Z,25.77
2023-02-05T21:02:54.895Z,32.97
2023-02-05T21:05:22.302Z,26.10
2023-02-05T21:07:49.779Z,29.00
2023-02-05T21:10:19.279Z,29.10
2023-02-05T21:12:46.792Z,28.53
2023-02-05T21:15:16.321Z,25.83
2023-02-05T21:17:43.844Z,26.17
2023-02-05T21:20:11.554Z,26.67
2023-02-05T21:22:38.984Z,26.60
2023-02-05T21:25:07.198Z,23.47
2023-02-05T21:27:34.642Z,31.83
2023-02-05T21:30:02.088Z,29.97
2023-02-05T21:32:32.960Z,27.23
2023-02-05T21:35:00.396Z,33.87
2023-02-05T21:37:27.835Z,30.40
2023-02-05T21:40:04.141Z,30.37
2023-02-05T21:42:36.191Z,23.60
2023-02-05T21:45:03.689Z,33.40
2023-02-05T21:47:32.654Z,31.90
2023-02-05T21:52:58.851Z,32.60
2023-02-05T21:55:26.788Z,31.90
2023-02-05T21:57:54.290Z,28.00
2023-02-05T22:00:21.712Z,33.63
2023-02-05T22:02:50.487Z,30.57
2023-02-05T22:05:17.967Z,29.13
2023-02-05T22:07:45.378Z,37.57
2023-02-05T22:10:12.781Z,26.30
2023-02-05T22:12:40.279Z,39.03
2023-02-05T22:15:08.179Z,33.63
2023-02-05T22:17:35.620Z,32.33
2023-02-05T22:20:04.667Z,29.20
2023-02-05T22:22:32.135Z,28.30
2023-02-05T22:24:59.600Z,32.53
2023-02-05T22:27:27.055Z,30.03
2023-02-05T22:29:55.131Z,27.87
2023-02-05T22:32:22.826Z,28.03
2023-02-05T22:34:50.242Z,26.97
2023-02-05T22:37:19.007Z,20.93
2023-02-05T22:39:46.443Z,25.93
2023-02-05T22:42:13.867Z,29.77
2023-02-05T22:44:41.270Z,25.87
2023-02-05T22:49:56.817Z,25.73
2023-02-05T22:52:26.128Z,32.37
2023-02-05T22:54:53.546Z,24.30
2023-02-05T22:57:20.973Z,23.20
2023-02-05T23:02:36.819Z,19.60
2023-02-05T23:05:04.571Z,24.87
2023-02-05T23:07:33.890Z,24.50
2023-02-05T23:10:01.315Z,24.13
2023-02-05T23:12:28.714Z,22.63
2023-02-05T23:14:56.745Z,26.63
2023-02-05T23:17:24.287Z,29.97
2023-02-05T23:19:52.338Z,24.43
2023-02-05T23:22:19.945Z,24.07
2023-02-05T23:24:48.713Z,28.57
2023-02-05T23:30:07.612Z,27.83
2023-02-05T23:35:34.317Z,25.13
2023-02-05T23:38:01.931Z,26.60
2023-02-05T23:40:30.684Z,21.93
2023-02-05T23:42:58.172Z,34.90
2023-02-05T23:48:13.930Z,33.40
2023-02-05T23:50:43.519Z,27.20
2023-02-05T23:55:41.556Z,27.77
2023-02-05T23:58:10.248Z,26.37
